Marquette Legends — WDF9484 — position and weather

sailwx.info

Track history (hours):
 
Tides and Currents Weather Stations Pressure Air Temp Water Temp Dewpoint Dewpoint Depression Visibility Wind Speed Wind Dir Waves Ship Positions

Marquette Legends

Owner: Marquette Transportation Co. LLC, Paducah, KY. More information available from US FCC via Universal Licensing System and Coast Guard Vessel Documentation Center.

Last reported at 2018-Jan-09 03:58 UTC. Time now 2018-Jan-23 06:03 UTC.
Position N 31°60' W 091°05'.
Warning: this ship's position is 14 days out of date.

Length 57 m; draft 3 m.

Type: Towing. MMSI: 367505630.

Date/timePositionNaut miles runAvg speedWind from/ knotsBaromVisibWave heightAir tempDewpointWater temp
2018-Jan-09 03:58N 31°60' W 091°05'5 9.0
2018-Jan-09 03:27N 32°04' W 091°04'4 8.9
2018-Jan-09 03:00N 32°07' W 091°07'2 3.5
2018-Jan-09 02:30N 32°08' W 091°05'4 7.7
2018-Jan-09 02:00N 32°09' W 091°00'5 9.7
2018-Jan-09 01:30N 32°13' W 090°59'5 9.2
2018-Jan-09 01:00N 32°17' W 090°56'4 7.0
2018-Jan-09 00:30N 32°21' W 090°55'4 8.1
2018-Jan-09 00:00N 32°21' W 090°60'4 8.1
2018-Jan-08 23:30N 32°25' W 091°00'5 9.3
2018-Jan-08 23:00N 32°27' W 091°05'4 8.4
2018-Jan-08 22:30N 32°31' W 091°06'4 8.6
2018-Jan-08 22:00N 32°35' W 091°08'4 8.8
2018-Jan-08 21:30N 32°40' W 091°08'  
Track history (hours):
 
Tides and Currents Weather Stations Pressure Air Temp Water Temp Dewpoint Dewpoint Depression Visibility Wind Speed Wind Dir Waves Ship Positions

Marquette Legends

Owner: Marquette Transportation Co. LLC, Paducah, KY. More information available from US FCC via Universal Licensing System and Coast Guard Vessel Documentation Center.

Last reported at 2018-Jan-09 03:58 UTC. Time now 2018-Jan-23 06:03 UTC.
Position N 31°60' W 091°05'.
Warning: this ship's position is 14 days out of date.

Length 57 m; draft 3 m.

Type: Towing. MMSI: 367505630.

Date/timePositionNaut miles runAvg speedWind from/ knotsBaromVisibWave heightAir tempDewpointWater temp
2018-Jan-09 03:58N 31°60' W 091°05'5 9.0
2018-Jan-09 03:27N 32°04' W 091°04'4 8.9
2018-Jan-09 03:00N 32°07' W 091°07'2 3.5
2018-Jan-09 02:30N 32°08' W 091°05'4 7.7
2018-Jan-09 02:00N 32°09' W 091°00'5 9.7
2018-Jan-09 01:30N 32°13' W 090°59'5 9.2
2018-Jan-09 01:00N 32°17' W 090°56'4 7.0
2018-Jan-09 00:30N 32°21' W 090°55'4 8.1
2018-Jan-09 00:00N 32°21' W 090°60'4 8.1
2018-Jan-08 23:30N 32°25' W 091°00'5 9.3
2018-Jan-08 23:00N 32°27' W 091°05'4 8.4
2018-Jan-08 22:30N 32°31' W 091°06'4 8.6
2018-Jan-08 22:00N 32°35' W 091°08'4 8.8
2018-Jan-08 21:30N 32°40' W 091°08'  

Dump ship's entire track history